This is the latest recevied weather packets stored in our database for station/object YC0ACE-13. If no packets are shown the sender has not sent any weather packets the latest 10 day(s).
| Time | Temp. | Humidity | Pressure | Rain* | Wind** | Luminosity | Snow |
|---|---|---|---|---|---|---|---|
| 1777709425 | 25° C | 96% | 1012.9 hPa | 3.05 mm | - | 40 W/m² | - |
| 1777709124 | 25° C | 96% | 1012.9 hPa | 10.92 mm | - | 48 W/m² | - |
| 1777708824 | 25° C | 96% | 1012.9 hPa | 25.91 mm | - | 53 W/m² | - |
| 1777708525 | 25° C | 96% | 1013.2 hPa | 44.45 mm | - | 38 W/m² | - |
| 1777708225 | 25° C | 95% | 1013.2 hPa | 56.39 mm | - | 32 W/m² | - |
| 1777707924 | 25° C | 95% | 1013.2 hPa | 53.34 mm | - | 24 W/m² | - |
| 1777707625 | 25° C | 95% | 1013.2 hPa | 61.21 mm | - | 22 W/m² | - |
| 1777707324 | 25° C | 94% | 1012.9 hPa | 41.4 mm | - | 16 W/m² | - |
| 1777707024 | 25° C | 93% | 1012.9 hPa | 59.44 mm | - | 11 W/m² | - |
| 1777706724 | 25.56° C | 91% | 1012.9 hPa | 62.48 mm | - | 7 W/m² | - |
| 1777706425 | 26.67° C | 86% | 1012.5 hPa | 36.58 mm | - | 5 W/m² | - |
| 1777706125 | 27.78° C | 83% | 1012.5 hPa | 18.54 mm | - | 5 W/m² | - |
| 1777705824 | 27.78° C | 84% | 1012.5 hPa | 0 mm | - | 5 W/m² | - |
| 1777705524 | 28.33° C | 82% | 1012.5 hPa | 0 mm | - | 10 W/m² | - |
| 1777705224 | 29.44° C | 77% | 1012.5 hPa | 0 mm | - | 20 W/m² | - |
| 1777704926 | 29.44° C | 77% | 1012.5 hPa | 0 mm | - | 28 W/m² | - |
| 1777704625 | 30.56° C | 75% | 1012.9 hPa | 0 mm | - | 34 W/m² | - |
| 1777704325 | 31.11° C | 72% | 1012.9 hPa | 0 mm | - | 39 W/m² | - |
| 1777704025 | 31.11° C | 70% | 1012.9 hPa | 0 mm | - | 55 W/m² | - |
| 1777703724 | 31.11° C | 71% | 1013.2 hPa | 0 mm | - | 67 W/m² | - |
| 1777703424 | 31.67° C | 70% | 1012.9 hPa | 0 mm | - | 103 W/m² | - |
| 1777703125 | 32.78° C | 66% | 1013.2 hPa | 0 mm | - | 128 W/m² | - |
| 1777702825 | 32.78° C | 64% | 1013.5 hPa | 0 mm | - | 199 W/m² | - |
| 1777702524 | 32.78° C | 62% | 1013.5 hPa | 0 mm | - | 217 W/m² | - |
| 1777702225 | 32.78° C | 63% | 1013.5 hPa | 0 mm | - | 235 W/m² | - |
* Rain latest hour (hover to see other rain measurements)
** Current wind speed in m/s (hover to see current wind gust speed)